Beverly Farms, Massachusetts
Current Conditions -  °F | °C
As of 10:53 AM on Sunday 23 Nov 2014 (Local Time) from KBVY Reporting Station
Scattered Clouds Scattered Clouds  
Wind Chill: 54°   Ceiling: Unl
Heat Index: 54°   Visibility: 10mi
Dew Point: 32°   Wind: 9mph
Humidity: 43%   Direction: 260°W
Pressure: 30.12"   Gusts: NA
Location:  42.5685°N, 70.8619°W
Report Text: KBVY 231553Z 26008KT 10SM SCT100 12/00 A3012 RMK AO2 SLP195 T01220000
Loading
Personal Weather Stations






























Interactive Weather Map New forecast layout! Learn more

10-Day Weather Forecast

Advertisements
Track Severe Weather on mobile